Aeroporto :
LOGIN :

Iscrizione | Disclaimer

   EN    FR    IT 

 










Sommario :    VFR   VFR Marginale   IFR   IFR Intensivo   IFR Molto Intensivo
Visibilità : 
Base nubi : 
>= 8 km
>= 3000ft
5 / 8 km
1000 / 3000 ft
1500m / 5 km
500 / 1000 ft
800 / 1500m
200 / 500 ft
< 800m
< 200 ft
Simboli :   Temporali  Nebbia  Neve Forte  Precipitazioni Forti  Vento > 20 kt
SIGMETs :   Varie  Temporali  Ghiacco  Turbolenza  Onda orograficha  Ceneri Vulcaniche






- Altitudine del aeroporto : 348 ft
- Codice IATA : STN


EGSS - London Stansted

ULTIMO METAR :
  • 051620Z AUTO 22017KT 9999 NCD 07/05 Q1015

METARs OBSOLETI :
  • 051550Z AUTO 22014KT 9999 NCD 07/05 Q1015
  • 051520Z AUTO 22014KT 9999 NCD 06/05 Q1015
  • 051450Z AUTO 21014KT 9999 NCD 06/05 Q1016
  • 051420Z AUTO 22013KT 9999 NCD 06/05 Q1017
  • 051350Z AUTO 22010KT 9999 NCD 06/05 Q1017

TAF TAF EGSS
Valido dal 05 a 12 ore il 06 a 18 ore UTC


051058Z 0512/0618 22010KT 6000 FEW004
PROB40 0512/0513 4000 BR BKN004
BECMG 0513/0515 9999
TEMPO 0516/0612 23018G28KT
BECMG 0519/0522 BKN010
PROB30
TEMPO 0519/0522 8000 -RA
BECMG 0522/0601 OVC005
TEMPO 0522/0612 6000 RA BKN004
PROB30
TEMPO 0522/0609 3000 RADZ
PROB40
TEMPO 0609/0612 2000 DZ BKN001
BECMG 0612/0614 SCT008
TEMPO 0614/0618 6000 SHRA
PROB30
TEMPO 0615/0618 3000 +SHRA BKN014
ATIS : +44 1279 669 325



MetMap, La meteo Aeronautica in un colpo d'occhio ! - Copyright ORBIFLY Dicembre 2007 - Disclaimer

ORBIFLY MET'MAP TEAM :

Programmazione e sviluppo : Alexandra Zaïnal
Concezione : Baudouin d'Aumeries
Aiuto per la programmazione : Marc-Olivier Méhu
Supporto tecnico e logistico : Manuel Goepfert
Aiuto per la traduzione : Arnaldo La Scala

Contatto : metmap@orbifly.com




FONTI E CREDITI :

   NOAA